sensor_id;sensor_type;location;lat;lon;timestamp;P1;durP1;ratioP1;P2;durP2;ratioP2
19883;SDS011;10104;50.732;10.174;2022-07-06T00:00:37;5.27;;;2.10;;
19883;SDS011;10104;50.732;10.174;2022-07-06T00:02:58;3.27;;;1.90;;
19883;SDS011;10104;50.732;10.174;2022-07-06T00:05:20;4.03;;;2.07;;
19883;SDS011;10104;50.732;10.174;2022-07-06T00:07:42;2.60;;;2.20;;
19883;SDS011;10104;50.732;10.174;2022-07-06T00:10:03;2.37;;;1.97;;
19883;SDS011;10104;50.732;10.174;2022-07-06T00:12:25;4.60;;;2.10;;
19883;SDS011;10104;50.732;10.174;2022-07-06T00:14:46;3.20;;;1.87;;
19883;SDS011;10104;50.732;10.174;2022-07-06T00:17:08;2.63;;;2.10;;
19883;SDS011;10104;50.732;10.174;2022-07-06T00:19:29;5.13;;;1.97;;
19883;SDS011;10104;50.732;10.174;2022-07-06T00:21:51;3.33;;;2.40;;
19883;SDS011;10104;50.732;10.174;2022-07-06T00:24:12;2.40;;;2.20;;
19883;SDS011;10104;50.732;10.174;2022-07-06T00:26:34;4.97;;;2.23;;
19883;SDS011;10104;50.732;10.174;2022-07-06T00:28:55;4.77;;;2.23;;
19883;SDS011;10104;50.732;10.174;2022-07-06T00:31:17;2.80;;;2.13;;
19883;SDS011;10104;50.732;10.174;2022-07-06T00:33:39;3.57;;;2.00;;
19883;SDS011;10104;50.732;10.174;2022-07-06T00:36:00;2.43;;;2.10;;
19883;SDS011;10104;50.732;10.174;2022-07-06T00:38:21;4.07;;;2.00;;
19883;SDS011;10104;50.732;10.174;2022-07-06T00:40:44;4.23;;;2.30;;
19883;SDS011;10104;50.732;10.174;2022-07-06T00:43:05;2.77;;;2.17;;
19883;SDS011;10104;50.732;10.174;2022-07-06T00:45:27;3.77;;;2.37;;
19883;SDS011;10104;50.732;10.174;2022-07-06T00:47:48;4.00;;;2.30;;
19883;SDS011;10104;50.732;10.174;2022-07-06T00:50:11;4.33;;;2.50;;
19883;SDS011;10104;50.732;10.174;2022-07-06T00:52:45;2.53;;;2.30;;
19883;SDS011;10104;50.732;10.174;2022-07-06T00:55:19;3.17;;;2.27;;
19883;SDS011;10104;50.732;10.174;2022-07-06T00:57:42;3.07;;;2.50;;
19883;SDS011;10104;50.732;10.174;2022-07-06T01:00:04;3.43;;;2.17;;
19883;SDS011;10104;50.732;10.174;2022-07-06T01:02:30;3.97;;;2.30;;
19883;SDS011;10104;50.732;10.174;2022-07-06T01:04:55;2.30;;;2.10;;
19883;SDS011;10104;50.732;10.174;2022-07-06T01:07:16;2.70;;;2.17;;
19883;SDS011;10104;50.732;10.174;2022-07-06T01:09:38;2.67;;;2.37;;
19883;SDS011;10104;50.732;10.174;2022-07-06T01:12:00;3.00;;;2.60;;
19883;SDS011;10104;50.732;10.174;2022-07-06T01:14:21;2.57;;;2.30;;
19883;SDS011;10104;50.732;10.174;2022-07-06T01:16:43;2.53;;;2.27;;
19883;SDS011;10104;50.732;10.174;2022-07-06T01:19:05;2.83;;;2.40;;
19883;SDS011;10104;50.732;10.174;2022-07-06T01:21:26;3.03;;;2.40;;
19883;SDS011;10104;50.732;10.174;2022-07-06T01:23:48;4.80;;;2.20;;
19883;SDS011;10104;50.732;10.174;2022-07-06T01:26:10;2.50;;;2.30;;
19883;SDS011;10104;50.732;10.174;2022-07-06T01:28:34;3.20;;;2.23;;
19883;SDS011;10104;50.732;10.174;2022-07-06T01:30:56;3.83;;;2.47;;
19883;SDS011;10104;50.732;10.174;2022-07-06T01:33:17;5.43;;;2.60;;
19883;SDS011;10104;50.732;10.174;2022-07-06T01:35:39;2.90;;;2.50;;
19883;SDS011;10104;50.732;10.174;2022-07-06T01:38:00;2.53;;;2.20;;
19883;SDS011;10104;50.732;10.174;2022-07-06T01:40:22;5.97;;;2.70;;
19883;SDS011;10104;50.732;10.174;2022-07-06T01:42:43;3.70;;;2.47;;
19883;SDS011;10104;50.732;10.174;2022-07-06T01:45:05;4.97;;;2.40;;
19883;SDS011;10104;50.732;10.174;2022-07-06T01:47:27;4.07;;;2.40;;
19883;SDS011;10104;50.732;10.174;2022-07-06T01:49:49;7.13;;;2.50;;
19883;SDS011;10104;50.732;10.174;2022-07-06T01:52:10;4.40;;;2.50;;
19883;SDS011;10104;50.732;10.174;2022-07-06T01:54:32;4.83;;;2.90;;
19883;SDS011;10104;50.732;10.174;2022-07-06T01:56:53;3.80;;;2.53;;
19883;SDS011;10104;50.732;10.174;2022-07-06T01:59:15;3.33;;;2.60;;
19883;SDS011;10104;50.732;10.174;2022-07-06T02:01:36;3.70;;;2.30;;
19883;SDS011;10104;50.732;10.174;2022-07-06T02:03:58;2.97;;;2.30;;
19883;SDS011;10104;50.732;10.174;2022-07-06T02:06:19;6.00;;;2.50;;
19883;SDS011;10104;50.732;10.174;2022-07-06T02:08:41;4.73;;;2.30;;
19883;SDS011;10104;50.732;10.174;2022-07-06T02:11:04;3.37;;;2.80;;
19883;SDS011;10104;50.732;10.174;2022-07-06T02:13:26;3.07;;;2.70;;
19883;SDS011;10104;50.732;10.174;2022-07-06T02:15:47;2.40;;;2.20;;
19883;SDS011;10104;50.732;10.174;2022-07-06T02:18:09;3.40;;;2.47;;
19883;SDS011;10104;50.732;10.174;2022-07-06T02:20:30;2.53;;;2.30;;
19883;SDS011;10104;50.732;10.174;2022-07-06T02:22:52;2.73;;;2.47;;
19883;SDS011;10104;50.732;10.174;2022-07-06T02:25:13;3.53;;;2.30;;
19883;SDS011;10104;50.732;10.174;2022-07-06T02:27:35;4.13;;;2.60;;
19883;SDS011;10104;50.732;10.174;2022-07-06T02:29:56;4.30;;;2.00;;
19883;SDS011;10104;50.732;10.174;2022-07-06T02:32:18;3.17;;;2.20;;
19883;SDS011;10104;50.732;10.174;2022-07-06T02:34:39;3.33;;;2.67;;
19883;SDS011;10104;50.732;10.174;2022-07-06T02:37:01;4.13;;;2.30;;
19883;SDS011;10104;50.732;10.174;2022-07-06T02:39:22;2.30;;;2.10;;
19883;SDS011;10104;50.732;10.174;2022-07-06T02:41:44;3.63;;;2.53;;
19883;SDS011;10104;50.732;10.174;2022-07-06T02:44:05;2.40;;;2.20;;
19883;SDS011;10104;50.732;10.174;2022-07-06T02:46:26;4.93;;;2.40;;
19883;SDS011;10104;50.732;10.174;2022-07-06T02:48:48;3.37;;;2.50;;
19883;SDS011;10104;50.732;10.174;2022-07-06T02:51:10;2.70;;;2.30;;
19883;SDS011;10104;50.732;10.174;2022-07-06T02:53:31;3.17;;;2.20;;
19883;SDS011;10104;50.732;10.174;2022-07-06T02:55:53;3.67;;;2.30;;
19883;SDS011;10104;50.732;10.174;2022-07-06T02:58:14;4.07;;;1.90;;
19883;SDS011;10104;50.732;10.174;2022-07-06T03:00:35;3.10;;;2.20;;
19883;SDS011;10104;50.732;10.174;2022-07-06T03:02:57;6.70;;;2.60;;
19883;SDS011;10104;50.732;10.174;2022-07-06T03:05:19;3.80;;;2.53;;
19883;SDS011;10104;50.732;10.174;2022-07-06T03:07:40;2.70;;;2.30;;
19883;SDS011;10104;50.732;10.174;2022-07-06T03:10:02;2.67;;;2.13;;
19883;SDS011;10104;50.732;10.174;2022-07-06T03:12:23;3.00;;;2.70;;
19883;SDS011;10104;50.732;10.174;2022-07-06T03:14:45;2.83;;;2.23;;
19883;SDS011;10104;50.732;10.174;2022-07-06T03:17:06;2.93;;;2.60;;
19883;SDS011;10104;50.732;10.174;2022-07-06T03:19:28;3.10;;;2.80;;
19883;SDS011;10104;50.732;10.174;2022-07-06T03:21:50;2.83;;;2.23;;
19883;SDS011;10104;50.732;10.174;2022-07-06T03:24:12;5.80;;;2.67;;
19883;SDS011;10104;50.732;10.174;2022-07-06T03:26:33;4.17;;;2.27;;
19883;SDS011;10104;50.732;10.174;2022-07-06T03:28:55;4.97;;;2.50;;
19883;SDS011;10104;50.732;10.174;2022-07-06T03:31:16;4.50;;;2.47;;
19883;SDS011;10104;50.732;10.174;2022-07-06T03:33:38;2.80;;;2.00;;
19883;SDS011;10104;50.732;10.174;2022-07-06T03:35:59;2.57;;;2.30;;
19883;SDS011;10104;50.732;10.174;2022-07-06T03:38:21;5.30;;;2.70;;
19883;SDS011;10104;50.732;10.174;2022-07-06T03:40:43;3.53;;;2.43;;
19883;SDS011;10104;50.732;10.174;2022-07-06T03:43:04;3.17;;;2.57;;
19883;SDS011;10104;50.732;10.174;2022-07-06T03:45:26;3.17;;;2.60;;
19883;SDS011;10104;50.732;10.174;2022-07-06T03:47:47;3.77;;;2.30;;
19883;SDS011;10104;50.732;10.174;2022-07-06T03:50:09;3.87;;;2.33;;
19883;SDS011;10104;50.732;10.174;2022-07-06T03:52:31;3.33;;;2.47;;
19883;SDS011;10104;50.732;10.174;2022-07-06T03:54:52;3.53;;;2.30;;
19883;SDS011;10104;50.732;10.174;2022-07-06T03:57:14;2.67;;;2.33;;
19883;SDS011;10104;50.732;10.174;2022-07-06T03:59:35;3.13;;;2.33;;
19883;SDS011;10104;50.732;10.174;2022-07-06T04:01:56;3.40;;;2.63;;
19883;SDS011;10104;50.732;10.174;2022-07-06T04:04:18;3.53;;;2.90;;
19883;SDS011;10104;50.732;10.174;2022-07-06T04:06:40;3.80;;;2.27;;
19883;SDS011;10104;50.732;10.174;2022-07-06T04:09:01;2.80;;;2.53;;
19883;SDS011;10104;50.732;10.174;2022-07-06T04:11:23;3.03;;;2.73;;
19883;SDS011;10104;50.732;10.174;2022-07-06T04:13:44;3.60;;;2.67;;
19883;SDS011;10104;50.732;10.174;2022-07-06T04:16:06;4.20;;;2.70;;
19883;SDS011;10104;50.732;10.174;2022-07-06T04:18:28;4.10;;;2.40;;
19883;SDS011;10104;50.732;10.174;2022-07-06T04:20:49;3.00;;;2.70;;
19883;SDS011;10104;50.732;10.174;2022-07-06T04:23:11;3.87;;;2.57;;
19883;SDS011;10104;50.732;10.174;2022-07-06T04:25:32;4.20;;;2.53;;
19883;SDS011;10104;50.732;10.174;2022-07-06T04:27:55;4.33;;;2.40;;
19883;SDS011;10104;50.732;10.174;2022-07-06T04:30:16;6.17;;;2.70;;
19883;SDS011;10104;50.732;10.174;2022-07-06T04:32:38;4.50;;;2.83;;
19883;SDS011;10104;50.732;10.174;2022-07-06T04:34:59;4.43;;;2.53;;
19883;SDS011;10104;50.732;10.174;2022-07-06T04:37:21;5.27;;;3.33;;
19883;SDS011;10104;50.732;10.174;2022-07-06T04:39:43;3.50;;;3.20;;
19883;SDS011;10104;50.732;10.174;2022-07-06T04:42:04;4.30;;;3.03;;
19883;SDS011;10104;50.732;10.174;2022-07-06T04:44:26;4.07;;;2.73;;
19883;SDS011;10104;50.732;10.174;2022-07-06T04:46:47;5.37;;;3.03;;
19883;SDS011;10104;50.732;10.174;2022-07-06T04:49:09;2.90;;;2.60;;
19883;SDS011;10104;50.732;10.174;2022-07-06T04:51:30;4.47;;;2.60;;
19883;SDS011;10104;50.732;10.174;2022-07-06T04:53:52;3.27;;;2.90;;
19883;SDS011;10104;50.732;10.174;2022-07-06T04:56:13;6.00;;;3.10;;
19883;SDS011;10104;50.732;10.174;2022-07-06T04:58:35;3.63;;;2.60;;
19883;SDS011;10104;50.732;10.174;2022-07-06T05:00:56;7.67;;;2.83;;
19883;SDS011;10104;50.732;10.174;2022-07-06T05:03:18;2.80;;;2.50;;
19883;SDS011;10104;50.732;10.174;2022-07-06T05:05:39;4.20;;;2.57;;
19883;SDS011;10104;50.732;10.174;2022-07-06T05:08:00;7.43;;;2.90;;
19883;SDS011;10104;50.732;10.174;2022-07-06T05:10:22;4.33;;;3.00;;
19883;SDS011;10104;50.732;10.174;2022-07-06T05:12:43;3.70;;;3.07;;
19883;SDS011;10104;50.732;10.174;2022-07-06T05:15:05;4.33;;;2.90;;
19883;SDS011;10104;50.732;10.174;2022-07-06T05:17:27;3.03;;;2.77;;
19883;SDS011;10104;50.732;10.174;2022-07-06T05:19:50;8.20;;;2.73;;
19883;SDS011;10104;50.732;10.174;2022-07-06T05:22:11;5.03;;;2.70;;
19883;SDS011;10104;50.732;10.174;2022-07-06T05:24:33;5.17;;;2.83;;
19883;SDS011;10104;50.732;10.174;2022-07-06T05:26:54;4.07;;;2.77;;
19883;SDS011;10104;50.732;10.174;2022-07-06T05:29:16;4.13;;;2.60;;
19883;SDS011;10104;50.732;10.174;2022-07-06T05:31:37;5.37;;;2.80;;
19883;SDS011;10104;50.732;10.174;2022-07-06T05:33:58;7.10;;;2.80;;
19883;SDS011;10104;50.732;10.174;2022-07-06T05:36:20;2.77;;;2.43;;
19883;SDS011;10104;50.732;10.174;2022-07-06T05:38:42;5.47;;;2.40;;
19883;SDS011;10104;50.732;10.174;2022-07-06T05:41:03;4.80;;;2.40;;
19883;SDS011;10104;50.732;10.174;2022-07-06T05:43:25;4.38;;;2.78;;
19883;SDS011;10104;50.732;10.174;2022-07-06T05:45:46;6.65;;;2.22;;
19883;SDS011;10104;50.732;10.174;2022-07-06T05:48:08;3.92;;;2.42;;
19883;SDS011;10104;50.732;10.174;2022-07-06T05:50:48;5.70;;;2.15;;
19883;SDS011;10104;50.732;10.174;2022-07-06T05:53:09;5.43;;;2.20;;
19883;SDS011;10104;50.732;10.174;2022-07-06T05:55:39;3.25;;;2.30;;
19883;SDS011;10104;50.732;10.174;2022-07-06T05:58:00;3.53;;;2.45;;
19883;SDS011;10104;50.732;10.174;2022-07-06T06:00:23;4.18;;;2.45;;
19883;SDS011;10104;50.732;10.174;2022-07-06T06:02:45;7.20;;;2.40;;
19883;SDS011;10104;50.732;10.174;2022-07-06T06:05:07;3.55;;;2.88;;
19883;SDS011;10104;50.732;10.174;2022-07-06T06:07:30;3.60;;;2.50;;
19883;SDS011;10104;50.732;10.174;2022-07-06T06:09:51;4.55;;;2.47;;
19883;SDS011;10104;50.732;10.174;2022-07-06T06:12:13;4.72;;;2.28;;
19883;SDS011;10104;50.732;10.174;2022-07-06T06:14:34;8.27;;;2.45;;
19883;SDS011;10104;50.732;10.174;2022-07-06T06:16:56;4.68;;;2.38;;
19883;SDS011;10104;50.732;10.174;2022-07-06T06:19:17;6.55;;;2.63;;
19883;SDS011;10104;50.732;10.174;2022-07-06T06:21:38;6.20;;;3.20;;
19883;SDS011;10104;50.732;10.174;2022-07-06T06:24:00;12.88;;;4.65;;
19883;SDS011;10104;50.732;10.174;2022-07-06T06:26:21;6.53;;;3.17;;
19883;SDS011;10104;50.732;10.174;2022-07-06T06:28:43;5.13;;;2.40;;
19883;SDS011;10104;50.732;10.174;2022-07-06T06:31:04;5.93;;;2.08;;
19883;SDS011;10104;50.732;10.174;2022-07-06T06:33:27;6.32;;;2.28;;
19883;SDS011;10104;50.732;10.174;2022-07-06T06:35:49;7.88;;;2.10;;
19883;SDS011;10104;50.732;10.174;2022-07-06T06:38:12;2.85;;;1.88;;
19883;SDS011;10104;50.732;10.174;2022-07-06T06:40:34;4.82;;;2.10;;
19883;SDS011;10104;50.732;10.174;2022-07-06T06:42:56;3.67;;;1.80;;
19883;SDS011;10104;50.732;10.174;2022-07-06T06:45:17;6.38;;;1.95;;
19883;SDS011;10104;50.732;10.174;2022-07-06T06:47:39;7.20;;;2.22;;
19883;SDS011;10104;50.732;10.174;2022-07-06T06:50:00;7.85;;;2.35;;
19883;SDS011;10104;50.732;10.174;2022-07-06T06:52:22;7.63;;;2.50;;
19883;SDS011;10104;50.732;10.174;2022-07-06T06:55:01;5.95;;;2.00;;
19883;SDS011;10104;50.732;10.174;2022-07-06T06:57:22;5.35;;;1.80;;
19883;SDS011;10104;50.732;10.174;2022-07-06T06:59:44;3.88;;;2.00;;
19883;SDS011;10104;50.732;10.174;2022-07-06T07:02:05;4.93;;;1.90;;
19883;SDS011;10104;50.732;10.174;2022-07-06T07:04:27;8.00;;;1.98;;
19883;SDS011;10104;50.732;10.174;2022-07-06T07:06:50;6.18;;;2.38;;
19883;SDS011;10104;50.732;10.174;2022-07-06T07:09:12;3.28;;;1.90;;
19883;SDS011;10104;50.732;10.174;2022-07-06T07:11:33;6.05;;;1.90;;
19883;SDS011;10104;50.732;10.174;2022-07-06T07:13:55;4.65;;;1.98;;
19883;SDS011;10104;50.732;10.174;2022-07-06T07:16:16;9.13;;;2.25;;
19883;SDS011;10104;50.732;10.174;2022-07-06T07:18:38;5.75;;;1.92;;
19883;SDS011;10104;50.732;10.174;2022-07-06T07:21:00;3.90;;;1.95;;
19883;SDS011;10104;50.732;10.174;2022-07-06T07:23:21;6.75;;;1.70;;
19883;SDS011;10104;50.732;10.174;2022-07-06T07:25:42;8.30;;;2.20;;
19883;SDS011;10104;50.732;10.174;2022-07-06T07:28:04;4.53;;;1.77;;
19883;SDS011;10104;50.732;10.174;2022-07-06T07:30:26;3.55;;;1.85;;
19883;SDS011;10104;50.732;10.174;2022-07-06T07:32:47;3.97;;;1.77;;
19883;SDS011;10104;50.732;10.174;2022-07-06T07:35:09;3.28;;;1.88;;
19883;SDS011;10104;50.732;10.174;2022-07-06T07:37:30;7.35;;;2.00;;
19883;SDS011;10104;50.732;10.174;2022-07-06T07:39:52;4.57;;;1.90;;
19883;SDS011;10104;50.732;10.174;2022-07-06T07:42:13;10.40;;;2.20;;
19883;SDS011;10104;50.732;10.174;2022-07-06T07:44:38;6.25;;;1.85;;
19883;SDS011;10104;50.732;10.174;2022-07-06T07:47:00;8.57;;;2.20;;
19883;SDS011;10104;50.732;10.174;2022-07-06T07:49:21;8.05;;;2.20;;
19883;SDS011;10104;50.732;10.174;2022-07-06T07:51:43;5.10;;;1.83;;
19883;SDS011;10104;50.732;10.174;2022-07-06T07:54:04;7.50;;;2.22;;
19883;SDS011;10104;50.732;10.174;2022-07-06T07:56:27;3.28;;;2.05;;
19883;SDS011;10104;50.732;10.174;2022-07-06T07:58:48;5.35;;;2.20;;
19883;SDS011;10104;50.732;10.174;2022-07-06T08:01:10;6.68;;;2.20;;
19883;SDS011;10104;50.732;10.174;2022-07-06T08:03:32;4.18;;;1.92;;
19883;SDS011;10104;50.732;10.174;2022-07-06T08:05:53;3.78;;;2.00;;
19883;SDS011;10104;50.732;10.174;2022-07-06T08:08:15;5.00;;;1.88;;
19883;SDS011;10104;50.732;10.174;2022-07-06T08:10:37;3.35;;;1.75;;
19883;SDS011;10104;50.732;10.174;2022-07-06T08:13:18;4.25;;;1.75;;
19883;SDS011;10104;50.732;10.174;2022-07-06T08:15:40;4.47;;;2.10;;
19883;SDS011;10104;50.732;10.174;2022-07-06T08:18:02;4.85;;;2.20;;
19883;SDS011;10104;50.732;10.174;2022-07-06T08:20:24;4.47;;;1.73;;
19883;SDS011;10104;50.732;10.174;2022-07-06T08:22:46;5.13;;;1.90;;
19883;SDS011;10104;50.732;10.174;2022-07-06T08:25:08;5.10;;;2.00;;
19883;SDS011;10104;50.732;10.174;2022-07-06T08:27:30;7.03;;;2.25;;
19883;SDS011;10104;50.732;10.174;2022-07-06T08:29:51;5.50;;;2.30;;
19883;SDS011;10104;50.732;10.174;2022-07-06T08:32:13;3.88;;;1.83;;
19883;SDS011;10104;50.732;10.174;2022-07-06T08:34:54;6.10;;;2.08;;
19883;SDS011;10104;50.732;10.174;2022-07-06T08:37:16;4.93;;;2.10;;
19883;SDS011;10104;50.732;10.174;2022-07-06T08:39:37;3.30;;;1.70;;
19883;SDS011;10104;50.732;10.174;2022-07-06T08:41:59;3.88;;;2.03;;
19883;SDS011;10104;50.732;10.174;2022-07-06T08:44:22;5.50;;;1.98;;
19883;SDS011;10104;50.732;10.174;2022-07-06T08:46:44;5.43;;;1.85;;
19883;SDS011;10104;50.732;10.174;2022-07-06T08:49:07;5.53;;;1.98;;
19883;SDS011;10104;50.732;10.174;2022-07-06T08:51:29;4.65;;;1.73;;
19883;SDS011;10104;50.732;10.174;2022-07-06T08:53:51;9.07;;;1.92;;
19883;SDS011;10104;50.732;10.174;2022-07-06T08:56:15;6.45;;;1.92;;
19883;SDS011;10104;50.732;10.174;2022-07-06T08:58:39;5.35;;;2.03;;
19883;SDS011;10104;50.732;10.174;2022-07-06T09:01:03;2.35;;;1.73;;
19883;SDS011;10104;50.732;10.174;2022-07-06T09:03:25;2.95;;;1.92;;
19883;SDS011;10104;50.732;10.174;2022-07-06T09:05:47;2.25;;;1.52;;
19883;SDS011;10104;50.732;10.174;2022-07-06T09:08:15;4.25;;;1.70;;
19883;SDS011;10104;50.732;10.174;2022-07-06T09:10:39;2.65;;;1.70;;
19883;SDS011;10104;50.732;10.174;2022-07-06T09:13:07;5.22;;;1.83;;
19883;SDS011;10104;50.732;10.174;2022-07-06T09:15:29;5.88;;;1.48;;
19883;SDS011;10104;50.732;10.174;2022-07-06T09:17:52;3.92;;;1.67;;
19883;SDS011;10104;50.732;10.174;2022-07-06T09:20:17;3.72;;;1.45;;
19883;SDS011;10104;50.732;10.174;2022-07-06T09:22:38;4.05;;;1.58;;
19883;SDS011;10104;50.732;10.174;2022-07-06T09:25:02;4.72;;;1.85;;
19883;SDS011;10104;50.732;10.174;2022-07-06T09:27:38;3.13;;;1.80;;
19883;SDS011;10104;50.732;10.174;2022-07-06T09:30:11;4.82;;;1.90;;
19883;SDS011;10104;50.732;10.174;2022-07-06T09:32:37;3.67;;;1.63;;
19883;SDS011;10104;50.732;10.174;2022-07-06T09:35:00;3.42;;;1.65;;
19883;SDS011;10104;50.732;10.174;2022-07-06T09:37:23;3.35;;;1.65;;
19883;SDS011;10104;50.732;10.174;2022-07-06T09:39:47;2.90;;;1.33;;
19883;SDS011;10104;50.732;10.174;2022-07-06T09:42:08;5.40;;;2.00;;
19883;SDS011;10104;50.732;10.174;2022-07-06T09:44:34;2.67;;;1.60;;
19883;SDS011;10104;50.732;10.174;2022-07-06T09:46:59;3.63;;;1.50;;
19883;SDS011;10104;50.732;10.174;2022-07-06T09:49:21;4.60;;;1.70;;
19883;SDS011;10104;50.732;10.174;2022-07-06T09:51:44;4.30;;;1.60;;
19883;SDS011;10104;50.732;10.174;2022-07-06T09:54:07;2.80;;;1.52;;
19883;SDS011;10104;50.732;10.174;2022-07-06T09:56:39;4.28;;;1.60;;
19883;SDS011;10104;50.732;10.174;2022-07-06T09:59:04;3.45;;;1.30;;
19883;SDS011;10104;50.732;10.174;2022-07-06T10:01:29;4.25;;;1.40;;
19883;SDS011;10104;50.732;10.174;2022-07-06T10:03:52;5.30;;;1.58;;
19883;SDS011;10104;50.732;10.174;2022-07-06T10:06:13;2.78;;;1.52;;
19883;SDS011;10104;50.732;10.174;2022-07-06T10:08:35;3.80;;;1.50;;
19883;SDS011;10104;50.732;10.174;2022-07-06T10:10:58;5.60;;;1.92;;
19883;SDS011;10104;50.732;10.174;2022-07-06T10:13:20;6.05;;;1.90;;
19883;SDS011;10104;50.732;10.174;2022-07-06T10:15:45;2.33;;;1.50;;
19883;SDS011;10104;50.732;10.174;2022-07-06T10:18:07;2.95;;;1.35;;
19883;SDS011;10104;50.732;10.174;2022-07-06T10:20:32;2.10;;;1.20;;
19883;SDS011;10104;50.732;10.174;2022-07-06T10:23:01;2.95;;;1.40;;
19883;SDS011;10104;50.732;10.174;2022-07-06T10:25:23;4.40;;;1.60;;
19883;SDS011;10104;50.732;10.174;2022-07-06T10:27:46;2.53;;;1.33;;
19883;SDS011;10104;50.732;10.174;2022-07-06T10:30:08;4.97;;;1.40;;
19883;SDS011;10104;50.732;10.174;2022-07-06T10:32:31;6.15;;;1.65;;
19883;SDS011;10104;50.732;10.174;2022-07-06T10:34:52;6.63;;;1.50;;
19883;SDS011;10104;50.732;10.174;2022-07-06T10:37:24;2.47;;;1.30;;
19883;SDS011;10104;50.732;10.174;2022-07-06T10:39:46;3.70;;;1.10;;
19883;SDS011;10104;50.732;10.174;2022-07-06T10:45:12;2.40;;;1.63;;
19883;SDS011;10104;50.732;10.174;2022-07-06T10:47:41;2.75;;;1.45;;
19883;SDS011;10104;50.732;10.174;2022-07-06T10:50:03;5.03;;;1.80;;
19883;SDS011;10104;50.732;10.174;2022-07-06T10:55:29;3.45;;;1.42;;
19883;SDS011;10104;50.732;10.174;2022-07-06T10:57:53;2.40;;;1.40;;
19883;SDS011;10104;50.732;10.174;2022-07-06T11:00:14;4.25;;;1.40;;
19883;SDS011;10104;50.732;10.174;2022-07-06T11:02:39;3.00;;;1.27;;
19883;SDS011;10104;50.732;10.174;2022-07-06T11:05:01;4.70;;;1.45;;
19883;SDS011;10104;50.732;10.174;2022-07-06T11:07:22;2.17;;;1.35;;
19883;SDS011;10104;50.732;10.174;2022-07-06T11:09:53;2.40;;;1.00;;
19883;SDS011;10104;50.732;10.174;2022-07-06T11:12:17;4.07;;;1.33;;
19883;SDS011;10104;50.732;10.174;2022-07-06T11:14:40;4.65;;;1.25;;
19883;SDS011;10104;50.732;10.174;2022-07-06T11:17:01;3.38;;;1.33;;
19883;SDS011;10104;50.732;10.174;2022-07-06T11:19:24;3.00;;;1.40;;
19883;SDS011;10104;50.732;10.174;2022-07-06T11:21:50;6.75;;;1.27;;
19883;SDS011;10104;50.732;10.174;2022-07-06T11:24:14;1.83;;;1.33;;
19883;SDS011;10104;50.732;10.174;2022-07-06T11:26:44;7.90;;;1.60;;
19883;SDS011;10104;50.732;10.174;2022-07-06T11:29:08;2.35;;;1.30;;
19883;SDS011;10104;50.732;10.174;2022-07-06T11:31:36;5.85;;;1.63;;
19883;SDS011;10104;50.732;10.174;2022-07-06T11:33:59;3.10;;;1.30;;
19883;SDS011;10104;50.732;10.174;2022-07-06T11:36:22;2.65;;;1.30;;
19883;SDS011;10104;50.732;10.174;2022-07-06T11:38:44;3.55;;;1.15;;
19883;SDS011;10104;50.732;10.174;2022-07-06T11:41:06;4.35;;;1.30;;
19883;SDS011;10104;50.732;10.174;2022-07-06T11:43:28;4.72;;;1.40;;
19883;SDS011;10104;50.732;10.174;2022-07-06T11:45:50;2.75;;;1.20;;
19883;SDS011;10104;50.732;10.174;2022-07-06T11:48:11;2.15;;;1.30;;
19883;SDS011;10104;50.732;10.174;2022-07-06T11:50:33;1.58;;;0.90;;
19883;SDS011;10104;50.732;10.174;2022-07-06T11:52:55;1.77;;;1.27;;
19883;SDS011;10104;50.732;10.174;2022-07-06T11:55:16;4.25;;;1.40;;
19883;SDS011;10104;50.732;10.174;2022-07-06T11:57:38;3.35;;;1.05;;
19883;SDS011;10104;50.732;10.174;2022-07-06T12:00:00;3.65;;;1.25;;
19883;SDS011;10104;50.732;10.174;2022-07-06T12:02:21;3.42;;;1.42;;
19883;SDS011;10104;50.732;10.174;2022-07-06T12:04:44;4.40;;;1.67;;
19883;SDS011;10104;50.732;10.174;2022-07-06T12:07:07;3.28;;;1.60;;
19883;SDS011;10104;50.732;10.174;2022-07-06T12:09:31;2.22;;;1.45;;
19883;SDS011;10104;50.732;10.174;2022-07-06T12:11:53;3.63;;;1.42;;
19883;SDS011;10104;50.732;10.174;2022-07-06T12:14:19;6.47;;;1.50;;
19883;SDS011;10104;50.732;10.174;2022-07-06T12:16:41;3.60;;;1.27;;
19883;SDS011;10104;50.732;10.174;2022-07-06T12:19:03;2.30;;;1.20;;
19883;SDS011;10104;50.732;10.174;2022-07-06T12:21:27;7.03;;;1.17;;
19883;SDS011;10104;50.732;10.174;2022-07-06T12:23:50;2.22;;;1.40;;
19883;SDS011;10104;50.732;10.174;2022-07-06T12:26:13;3.63;;;1.60;;
19883;SDS011;10104;50.732;10.174;2022-07-06T12:28:36;3.10;;;1.15;;
19883;SDS011;10104;50.732;10.174;2022-07-06T12:30:58;3.80;;;1.40;;
19883;SDS011;10104;50.732;10.174;2022-07-06T12:33:19;3.40;;;1.30;;
19883;SDS011;10104;50.732;10.174;2022-07-06T12:35:41;2.63;;;1.45;;
19883;SDS011;10104;50.732;10.174;2022-07-06T12:38:03;6.43;;;1.77;;
19883;SDS011;10104;50.732;10.174;2022-07-06T12:40:25;14.50;;;2.13;;
19883;SDS011;10104;50.732;10.174;2022-07-06T12:42:48;10.70;;;1.70;;
19883;SDS011;10104;50.732;10.174;2022-07-06T12:45:10;2.95;;;1.30;;
19883;SDS011;10104;50.732;10.174;2022-07-06T12:47:32;4.00;;;1.23;;
19883;SDS011;10104;50.732;10.174;2022-07-06T12:50:03;12.52;;;1.70;;
19883;SDS011;10104;50.732;10.174;2022-07-06T12:52:28;2.05;;;1.10;;
19883;SDS011;10104;50.732;10.174;2022-07-06T12:54:50;2.13;;;1.10;;
19883;SDS011;10104;50.732;10.174;2022-07-06T12:57:18;2.92;;;1.30;;
19883;SDS011;10104;50.732;10.174;2022-07-06T12:59:48;3.78;;;1.30;;
19883;SDS011;10104;50.732;10.174;2022-07-06T13:02:17;2.08;;;1.20;;
19883;SDS011;10104;50.732;10.174;2022-07-06T13:04:39;4.05;;;1.30;;
19883;SDS011;10104;50.732;10.174;2022-07-06T13:07:01;2.55;;;1.30;;
19883;SDS011;10104;50.732;10.174;2022-07-06T13:09:28;3.10;;;0.93;;
19883;SDS011;10104;50.732;10.174;2022-07-06T13:11:50;1.88;;;1.13;;
19883;SDS011;10104;50.732;10.174;2022-07-06T13:14:13;2.58;;;1.35;;
19883;SDS011;10104;50.732;10.174;2022-07-06T13:16:36;2.83;;;1.02;;
19883;SDS011;10104;50.732;10.174;2022-07-06T13:18:57;2.60;;;1.27;;
19883;SDS011;10104;50.732;10.174;2022-07-06T13:21:19;3.63;;;1.05;;
19883;SDS011;10104;50.732;10.174;2022-07-06T13:23:40;10.88;;;1.63;;
19883;SDS011;10104;50.732;10.174;2022-07-06T13:26:02;8.98;;;1.38;;
19883;SDS011;10104;50.732;10.174;2022-07-06T13:28:23;5.57;;;1.30;;
19883;SDS011;10104;50.732;10.174;2022-07-06T13:30:45;2.38;;;1.30;;
19883;SDS011;10104;50.732;10.174;2022-07-06T13:33:06;4.03;;;1.10;;
19883;SDS011;10104;50.732;10.174;2022-07-06T13:35:27;8.85;;;1.40;;
19883;SDS011;10104;50.732;10.174;2022-07-06T13:37:49;6.53;;;1.38;;
19883;SDS011;10104;50.732;10.174;2022-07-06T13:40:11;2.67;;;1.10;;
19883;SDS011;10104;50.732;10.174;2022-07-06T13:42:33;24.30;;;2.10;;
19883;SDS011;10104;50.732;10.174;2022-07-06T13:44:54;8.43;;;1.80;;
19883;SDS011;10104;50.732;10.174;2022-07-06T13:47:16;3.22;;;1.30;;
19883;SDS011;10104;50.732;10.174;2022-07-06T13:49:37;1.55;;;1.00;;
19883;SDS011;10104;50.732;10.174;2022-07-06T13:51:59;3.90;;;1.20;;
19883;SDS011;10104;50.732;10.174;2022-07-06T13:54:25;5.85;;;1.30;;
19883;SDS011;10104;50.732;10.174;2022-07-06T13:56:46;3.47;;;0.90;;
19883;SDS011;10104;50.732;10.174;2022-07-06T13:59:08;2.95;;;1.10;;
19883;SDS011;10104;50.732;10.174;2022-07-06T14:01:30;2.42;;;1.00;;
19883;SDS011;10104;50.732;10.174;2022-07-06T14:03:52;1.90;;;1.10;;
19883;SDS011;10104;50.732;10.174;2022-07-06T14:06:13;26.02;;;2.20;;
19883;SDS011;10104;50.732;10.174;2022-07-06T14:08:36;7.82;;;1.33;;
19883;SDS011;10104;50.732;10.174;2022-07-06T14:10:58;16.60;;;1.95;;